Carnival Victory — 3FFL8 — position and weather

sailwx.info

Track history (hours):
 
Tides and Currents Weather Stations Pressure Air Temp Water Temp Dewpoint Dewpoint Depression Visibility Wind Speed Wind Dir Waves Ship Positions

Carnival Victory

Operator: Carnival Cruise Lines

Last reported at 2018-Nov-15 12:00 UTC. Time now 2018-Nov-15 18:50 UTC.
Position N 22°00' W 085°24'.

Type: Passenger vessel. MMSI: 355263000.

Wind from 320 at 45 knots

Barometer 1015.3 mb
Air temperature 25.0 ° C
Visibility: greater than 10.8 NM
Dewpoint 22.2 ° C
Water temperature 29.6 ° C

Date/timePositionNaut miles runAvg speedWind from/ knotsBaromVisibWave heightAir tempDewpointWater temp
2018-Nov-15 12:00N 22°00' W 085°24'184 5.0 320 / 451015.310.8 25.022.229.6
2018-Nov-13 23:00N 23°48' W 082°42'219 5.5 080 / 101015.010.8 27.024.329.6
2018-Nov-12 07:00N 26°00' W 079°30'65 8.1 070 / 221017.710.8 28.022.422.0
2018-Nov-11 23:00N 26°06' W 078°18'35 8.6 030 / 111018.010.8 27.025.728.9
2018-Nov-11 19:00N 25°54' W 077°42'17 0.5 020 / 101012.610.8 29.022.022.0
2018-Nov-10 07:00N 26°00' W 078°00'6614.8 040 / 101015.410.8 26.023.228.9
2018-Nov-10 02:31N 26°15' W 079°12'612.3
2018-Nov-10 02:02N 26°12' W 079°18'612.0
2018-Nov-10 01:32N 26°09' W 079°24'611.7
2018-Nov-10 01:02N 26°06' W 079°29'612.3
2018-Nov-10 00:32N 26°02' W 079°35'612.3
2018-Nov-10 00:02N 25°59' W 079°41'713.5
2018-Nov-09 23:32N 25°55' W 079°47'815.3
2018-Nov-09 23:03N 25°51' W 079°54'714.9
2018-Nov-09 22:33N 25°48' W 080°01'510.8
2018-Nov-09 22:02N 25°45' W 080°07'4 7.6
2018-Nov-09 21:33N 25°47' W 080°11'1 1.2
2018-Nov-09 21:01N 25°47' W 080°10'0 0.0
2018-Nov-09 20:31N 25°47' W 080°10'0 0.0
2018-Nov-09 20:01N 25°47' W 080°10'0 0.0
2018-Nov-09 19:31N 25°47' W 080°10'0 0.0
2018-Nov-09 19:01N 25°47' W 080°10'0 0.0
2018-Nov-09 18:22N 25°47' W 080°10'0 0.0
2018-Nov-09 18:01N 25°47' W 080°10'0 0.0
2018-Nov-09 17:25N 25°47' W 080°10'0 0.0
2018-Nov-09 16:55N 25°47' W 080°10'0 0.0
2018-Nov-09 16:31N 25°47' W 080°10'0 0.0
2018-Nov-09 16:01N 25°47' W 080°10'0 0.0
2018-Nov-09 15:31N 25°47' W 080°10'0 0.0
2018-Nov-09 14:58N 25°47' W 080°10'0 0.0
2018-Nov-09 14:28N 25°47' W 080°10'0 0.0
2018-Nov-09 13:58N 25°47' W 080°10'0 0.0
2018-Nov-09 13:28N 25°47' W 080°10'0 0.0
2018-Nov-09 12:58N 25°47' W 080°10'0 0.0
2018-Nov-09 12:28N 25°47' W 080°10'0 0.0
2018-Nov-09 12:02N 25°47' W 080°10'1 1.4
2018-Nov-09 11:32N 25°46' W 080°09'4 8.5
2018-Nov-09 11:02N 25°46' W 080°05'4 8.5
2018-Nov-09 10:32N 25°45' W 080°00'612.7
2018-Nov-09 10:03N 25°41' W 079°55'815.9
2018-Nov-09 09:33N 25°33' W 079°53'816.8
2018-Nov-09 09:03N 25°25' W 079°52'816.2
2018-Nov-09 08:33N 25°17' W 079°51'2415.6
2018-Nov-09 07:00N 24°54' W 080°00'40116.7 080 / 221014.710.8 25.023.629.2
2018-Nov-08 07:00N 21°24' W 086°12'6020.4 090 / 161012.810.8 26.023.229.7
2018-Nov-08 04:02N 20°38' W 086°54'918.3
2018-Nov-08 03:32N 20°30' W 086°59'2 3.5
2018-Nov-08 03:01N 20°29' W 086°59'0 0.0
2018-Nov-08 02:31N 20°29' W 086°59'0 0.0
2018-Nov-08 01:58N 20°29' W 086°59'0 0.0
2018-Nov-08 01:31N 20°29' W 086°59'0 0.0
2018-Nov-08 01:01N 20°29' W 086°59'0 0.0
2018-Nov-08 00:43N 20°29' W 086°59'0 0.0
2018-Nov-08 00:31N 20°29' W 086°59'0 0.0
2018-Nov-08 00:28N 20°29' W 086°59'0 0.0
2018-Nov-08 00:01N 20°29' W 086°59'0 0.0
2018-Nov-07 23:31N 20°29' W 086°59'0 0.0
2018-Nov-07 23:01N 20°29' W 086°59'0 0.0
2018-Nov-07 22:31N 20°29' W 086°59'0 0.0
2018-Nov-07 22:01N 20°29' W 086°59'0 0.0
2018-Nov-07 21:31N 20°29' W 086°59'0 0.0
2018-Nov-07 20:55N 20°29' W 086°59'0 0.0
2018-Nov-07 20:31N 20°29' W 086°59'0 0.0
2018-Nov-07 20:01N 20°29' W 086°59'0 0.0
2018-Nov-07 19:28N 20°29' W 086°59'0 0.0
2018-Nov-07 19:01N 20°29' W 086°59'0 0.0
2018-Nov-07 18:28N 20°29' W 086°59'0 0.0
2018-Nov-07 17:58N 20°29' W 086°59'0 0.0
2018-Nov-07 17:31N 20°29' W 086°59'0 0.0
2018-Nov-07 17:01N 20°29' W 086°59'0 0.3
2018-Nov-07 16:32N 20°29' W 086°59'3 6.7
2018-Nov-07 16:02N 20°32' W 086°59'15316.9
2018-Nov-07 07:00N 22°18' W 085°00'33411.1 090 / 251013.510.8 27.024.329.7
2018-Nov-06 01:03N 25°12' W 079°49'2113.8
2018-Nov-05 23:30N 25°33' W 079°46'613.4
2018-Nov-05 23:03N 25°38' W 079°51'113.9
2018-Nov-05 23:00N 25°38' W 079°51'713.7
2018-Nov-05 22:30N 25°43' W 079°57'613.1
2018-Nov-05 22:03N 25°45' W 080°03'113.1
2018-Nov-05 22:00N 25°45' W 080°04'5 9.6
2018-Nov-05 21:31N 25°46' W 080°09'1 2.5
2018-Nov-05 21:01N 25°47' W 080°10'0 0.0
2018-Nov-05 20:55N 25°47' W 080°10'0 0.0
2018-Nov-05 20:25N 25°47' W 080°10'0 0.0
2018-Nov-05 20:01N 25°47' W 080°10'0 0.0
2018-Nov-05 19:55N 25°47' W 080°10'0 0.0
2018-Nov-05 19:25N 25°47' W 080°10'0 0.0
2018-Nov-05 19:01N 25°47' W 080°10'0 0.0
2018-Nov-05 18:55N 25°47' W 080°10'0 0.0
2018-Nov-05 18:25N 25°47' W 080°10'0 0.0
2018-Nov-05 18:01N 25°47' W 080°10'0 0.0
2018-Nov-05 17:55N 25°47' W 080°10'0 0.0
2018-Nov-05 17:25N 25°47' W 080°10'0 0.0
2018-Nov-05 17:01N 25°47' W 080°10'0 0.0
2018-Nov-05 16:55N 25°47' W 080°10'0 0.0
2018-Nov-05 16:25N 25°47' W 080°10'0 0.0
2018-Nov-05 16:01N 25°47' W 080°10'0 0.0
2018-Nov-05 15:49N 25°47' W 080°10'0 0.0
2018-Nov-05 15:25N 25°47' W 080°10'0 0.0
2018-Nov-05 15:01N 25°47' W 080°10'0 0.0
2018-Nov-05 14:55N 25°47' W 080°10'0 0.0
2018-Nov-05 14:25N 25°47' W 080°10'0 0.0
2018-Nov-05 14:01N 25°47' W 080°10'0 0.0
2018-Nov-05 13:55N 25°47' W 080°10'0 0.0
2018-Nov-05 13:01N 25°47' W 080°10'0 0.1
2018-Nov-05 12:55N 25°47' W 080°10'0 0.0
2018-Nov-05 12:25N 25°47' W 080°10'0 0.0
2018-Nov-05 12:03N 25°47' W 080°10'0 0.2
2018-Nov-05 12:00N 25°47' W 080°10'  
Track history (hours):
 
Tides and Currents Weather Stations Pressure Air Temp Water Temp Dewpoint Dewpoint Depression Visibility Wind Speed Wind Dir Waves Ship Positions

Carnival Victory

Operator: Carnival Cruise Lines

Last reported at 2018-Nov-15 12:00 UTC. Time now 2018-Nov-15 18:50 UTC.
Position N 22°00' W 085°24'.

Type: Passenger vessel. MMSI: 355263000.

Wind from 320 at 45 knots

Barometer 1015.3 mb
Air temperature 25.0 ° C
Visibility: greater than 10.8 NM
Dewpoint 22.2 ° C
Water temperature 29.6 ° C

Date/timePositionNaut miles runAvg speedWind from/ knotsBaromVisibWave heightAir tempDewpointWater temp
2018-Nov-15 12:00N 22°00' W 085°24'184 5.0 320 / 451015.310.8 25.022.229.6
2018-Nov-13 23:00N 23°48' W 082°42'219 5.5 080 / 101015.010.8 27.024.329.6
2018-Nov-12 07:00N 26°00' W 079°30'65 8.1 070 / 221017.710.8 28.022.422.0
2018-Nov-11 23:00N 26°06' W 078°18'35 8.6 030 / 111018.010.8 27.025.728.9
2018-Nov-11 19:00N 25°54' W 077°42'17 0.5 020 / 101012.610.8 29.022.022.0
2018-Nov-10 07:00N 26°00' W 078°00'6614.8 040 / 101015.410.8 26.023.228.9
2018-Nov-10 02:31N 26°15' W 079°12'612.3
2018-Nov-10 02:02N 26°12' W 079°18'612.0
2018-Nov-10 01:32N 26°09' W 079°24'611.7
2018-Nov-10 01:02N 26°06' W 079°29'612.3
2018-Nov-10 00:32N 26°02' W 079°35'612.3
2018-Nov-10 00:02N 25°59' W 079°41'713.5
2018-Nov-09 23:32N 25°55' W 079°47'815.3
2018-Nov-09 23:03N 25°51' W 079°54'714.9
2018-Nov-09 22:33N 25°48' W 080°01'510.8
2018-Nov-09 22:02N 25°45' W 080°07'4 7.6
2018-Nov-09 21:33N 25°47' W 080°11'1 1.2
2018-Nov-09 21:01N 25°47' W 080°10'0 0.0
2018-Nov-09 20:31N 25°47' W 080°10'0 0.0
2018-Nov-09 20:01N 25°47' W 080°10'0 0.0
2018-Nov-09 19:31N 25°47' W 080°10'0 0.0
2018-Nov-09 19:01N 25°47' W 080°10'0 0.0
2018-Nov-09 18:22N 25°47' W 080°10'0 0.0
2018-Nov-09 18:01N 25°47' W 080°10'0 0.0
2018-Nov-09 17:25N 25°47' W 080°10'0 0.0
2018-Nov-09 16:55N 25°47' W 080°10'0 0.0
2018-Nov-09 16:31N 25°47' W 080°10'0 0.0
2018-Nov-09 16:01N 25°47' W 080°10'0 0.0
2018-Nov-09 15:31N 25°47' W 080°10'0 0.0
2018-Nov-09 14:58N 25°47' W 080°10'0 0.0
2018-Nov-09 14:28N 25°47' W 080°10'0 0.0
2018-Nov-09 13:58N 25°47' W 080°10'0 0.0
2018-Nov-09 13:28N 25°47' W 080°10'0 0.0
2018-Nov-09 12:58N 25°47' W 080°10'0 0.0
2018-Nov-09 12:28N 25°47' W 080°10'0 0.0
2018-Nov-09 12:02N 25°47' W 080°10'1 1.4
2018-Nov-09 11:32N 25°46' W 080°09'4 8.5
2018-Nov-09 11:02N 25°46' W 080°05'4 8.5
2018-Nov-09 10:32N 25°45' W 080°00'612.7
2018-Nov-09 10:03N 25°41' W 079°55'815.9
2018-Nov-09 09:33N 25°33' W 079°53'816.8
2018-Nov-09 09:03N 25°25' W 079°52'816.2
2018-Nov-09 08:33N 25°17' W 079°51'2415.6
2018-Nov-09 07:00N 24°54' W 080°00'40116.7 080 / 221014.710.8 25.023.629.2
2018-Nov-08 07:00N 21°24' W 086°12'6020.4 090 / 161012.810.8 26.023.229.7
2018-Nov-08 04:02N 20°38' W 086°54'918.3
2018-Nov-08 03:32N 20°30' W 086°59'2 3.5
2018-Nov-08 03:01N 20°29' W 086°59'0 0.0
2018-Nov-08 02:31N 20°29' W 086°59'0 0.0
2018-Nov-08 01:58N 20°29' W 086°59'0 0.0
2018-Nov-08 01:31N 20°29' W 086°59'0 0.0
2018-Nov-08 01:01N 20°29' W 086°59'0 0.0
2018-Nov-08 00:43N 20°29' W 086°59'0 0.0
2018-Nov-08 00:31N 20°29' W 086°59'0 0.0
2018-Nov-08 00:28N 20°29' W 086°59'0 0.0
2018-Nov-08 00:01N 20°29' W 086°59'0 0.0
2018-Nov-07 23:31N 20°29' W 086°59'0 0.0
2018-Nov-07 23:01N 20°29' W 086°59'0 0.0
2018-Nov-07 22:31N 20°29' W 086°59'0 0.0
2018-Nov-07 22:01N 20°29' W 086°59'0 0.0
2018-Nov-07 21:31N 20°29' W 086°59'0 0.0
2018-Nov-07 20:55N 20°29' W 086°59'0 0.0
2018-Nov-07 20:31N 20°29' W 086°59'0 0.0
2018-Nov-07 20:01N 20°29' W 086°59'0 0.0
2018-Nov-07 19:28N 20°29' W 086°59'0 0.0
2018-Nov-07 19:01N 20°29' W 086°59'0 0.0
2018-Nov-07 18:28N 20°29' W 086°59'0 0.0
2018-Nov-07 17:58N 20°29' W 086°59'0 0.0
2018-Nov-07 17:31N 20°29' W 086°59'0 0.0
2018-Nov-07 17:01N 20°29' W 086°59'0 0.3
2018-Nov-07 16:32N 20°29' W 086°59'3 6.7
2018-Nov-07 16:02N 20°32' W 086°59'15316.9
2018-Nov-07 07:00N 22°18' W 085°00'33411.1 090 / 251013.510.8 27.024.329.7
2018-Nov-06 01:03N 25°12' W 079°49'2113.8
2018-Nov-05 23:30N 25°33' W 079°46'613.4
2018-Nov-05 23:03N 25°38' W 079°51'113.9
2018-Nov-05 23:00N 25°38' W 079°51'713.7
2018-Nov-05 22:30N 25°43' W 079°57'613.1
2018-Nov-05 22:03N 25°45' W 080°03'113.1
2018-Nov-05 22:00N 25°45' W 080°04'5 9.6
2018-Nov-05 21:31N 25°46' W 080°09'1 2.5
2018-Nov-05 21:01N 25°47' W 080°10'0 0.0
2018-Nov-05 20:55N 25°47' W 080°10'0 0.0
2018-Nov-05 20:25N 25°47' W 080°10'0 0.0
2018-Nov-05 20:01N 25°47' W 080°10'0 0.0
2018-Nov-05 19:55N 25°47' W 080°10'0 0.0
2018-Nov-05 19:25N 25°47' W 080°10'0 0.0
2018-Nov-05 19:01N 25°47' W 080°10'0 0.0
2018-Nov-05 18:55N 25°47' W 080°10'0 0.0
2018-Nov-05 18:25N 25°47' W 080°10'0 0.0
2018-Nov-05 18:01N 25°47' W 080°10'0 0.0
2018-Nov-05 17:55N 25°47' W 080°10'0 0.0
2018-Nov-05 17:25N 25°47' W 080°10'0 0.0
2018-Nov-05 17:01N 25°47' W 080°10'0 0.0
2018-Nov-05 16:55N 25°47' W 080°10'0 0.0
2018-Nov-05 16:25N 25°47' W 080°10'0 0.0
2018-Nov-05 16:01N 25°47' W 080°10'0 0.0
2018-Nov-05 15:49N 25°47' W 080°10'0 0.0
2018-Nov-05 15:25N 25°47' W 080°10'0 0.0
2018-Nov-05 15:01N 25°47' W 080°10'0 0.0
2018-Nov-05 14:55N 25°47' W 080°10'0 0.0
2018-Nov-05 14:25N 25°47' W 080°10'0 0.0
2018-Nov-05 14:01N 25°47' W 080°10'0 0.0
2018-Nov-05 13:55N 25°47' W 080°10'0 0.0
2018-Nov-05 13:01N 25°47' W 080°10'0 0.1
2018-Nov-05 12:55N 25°47' W 080°10'0 0.0
2018-Nov-05 12:25N 25°47' W 080°10'0 0.0
2018-Nov-05 12:03N 25°47' W 080°10'0 0.2
2018-Nov-05 12:00N 25°47' W 080°10'  

Dump ship's entire track history